Аэропорт: Якутск. Якутск

ICAO: UEEE

METAR:
2022-01-28 08:00:00
UEEE 280800Z 00000MPS CAVOK M35/M39 Q1019 R23L/490140 NOSIG RMK QFE756
METAR:
2022-01-28 05:00:00
TAF UEEE 280500Z 2806/2912 28003MPS CAVOK TEMPO 2807/2822 2100 -SN BR NSC